createdAt,value
2023-01-02T00:00:27.407Z,5.03
2023-01-02T00:02:54.544Z,4.10
2023-01-02T00:05:21.378Z,5.50
2023-01-02T00:07:48.483Z,6.10
2023-01-02T00:10:15.428Z,5.10
2023-01-02T00:12:42.519Z,6.40
2023-01-02T00:15:09.890Z,6.28
2023-01-02T00:17:36.999Z,5.87
2023-01-02T00:20:04.435Z,5.13
2023-01-02T00:22:31.546Z,6.50
2023-01-02T00:24:58.639Z,5.80
2023-01-02T00:27:25.694Z,5.10
2023-01-02T00:29:52.891Z,5.90
2023-01-02T00:32:19.959Z,7.43
2023-01-02T00:34:47.065Z,6.72
2023-01-02T00:37:14.140Z,7.20
2023-01-02T00:39:41.234Z,6.20
2023-01-02T00:42:08.248Z,5.37
2023-01-02T00:44:35.362Z,5.85
2023-01-02T00:47:02.133Z,6.18
2023-01-02T00:49:29.381Z,6.50
2023-01-02T00:51:56.026Z,5.68
2023-01-02T00:54:23.118Z,6.43
2023-01-02T00:56:50.315Z,6.25
2023-01-02T00:59:17.428Z,5.25
2023-01-02T01:01:44.727Z,5.00
2023-01-02T01:04:12.057Z,6.43
2023-01-02T01:06:39.076Z,5.68
2023-01-02T01:09:06.170Z,5.73
2023-01-02T01:11:33.289Z,5.82
2023-01-02T01:14:00.404Z,4.75
2023-01-02T01:16:27.501Z,6.03
2023-01-02T01:18:56.835Z,5.25
2023-01-02T01:21:24.385Z,6.47
2023-01-02T01:23:52.462Z,7.22
2023-01-02T01:26:20.379Z,6.15
2023-01-02T01:28:47.663Z,8.70
2023-01-02T01:31:17.413Z,6.37
2023-01-02T01:33:45.105Z,7.43
2023-01-02T01:36:14.698Z,6.20
2023-01-02T01:38:42.123Z,6.55
2023-01-02T01:41:09.731Z,6.10
2023-01-02T01:43:38.093Z,7.20
2023-01-02T01:46:07.272Z,8.20
2023-01-02T01:48:34.444Z,5.97
2023-01-02T01:51:01.776Z,6.37
2023-01-02T01:53:29.002Z,7.45
2023-01-02T01:55:59.930Z,7.47
2023-01-02T01:58:31.018Z,7.95
2023-01-02T02:00:58.209Z,10.27
2023-01-02T02:03:27.431Z,8.68
2023-01-02T02:05:54.787Z,7.90
2023-01-02T02:08:26.637Z,9.57
2023-01-02T02:10:53.991Z,7.65
2023-01-02T02:13:21.508Z,6.70
2023-01-02T02:16:08.577Z,6.93
2023-01-02T02:18:45.050Z,6.78
2023-01-02T02:21:44.297Z,6.72
2023-01-02T02:24:12.438Z,6.38
2023-01-02T02:26:39.569Z,6.72
2023-01-02T02:29:06.650Z,7.88
2023-01-02T02:31:45.243Z,7.03
2023-01-02T02:34:32.307Z,6.72
2023-01-02T02:37:03.288Z,7.32
2023-01-02T02:39:30.373Z,7.37
2023-01-02T02:42:00.710Z,8.48
2023-01-02T02:44:33.855Z,8.40
2023-01-02T02:47:20.887Z,7.25
2023-01-02T02:50:03.706Z,6.95
2023-01-02T02:52:33.855Z,6.63
2023-01-02T02:55:05.438Z,6.45
2023-01-02T02:57:33.100Z,7.50
2023-01-02T03:00:00.303Z,7.57
2023-01-02T03:02:27.571Z,8.43
2023-01-02T03:04:58.819Z,6.93
2023-01-02T03:07:37.959Z,7.03
2023-01-02T03:10:08.425Z,7.07
2023-01-02T03:12:47.826Z,7.35
2023-01-02T03:15:34.827Z,7.18
2023-01-02T03:18:21.840Z,6.50
2023-01-02T03:20:54.600Z,6.95
2023-01-02T03:23:22.688Z,6.53
2023-01-02T03:25:49.549Z,7.05
2023-01-02T03:28:19.644Z,6.28
2023-01-02T03:30:49.380Z,6.90
2023-01-02T03:33:18.611Z,7.63
2023-01-02T03:35:47.308Z,7.82
2023-01-02T03:38:16.415Z,6.82
2023-01-02T03:40:49.801Z,5.82
2023-01-02T03:43:18.991Z,6.97
2023-01-02T03:45:49.804Z,6.43
2023-01-02T03:48:16.899Z,5.70
2023-01-02T03:50:54.438Z,6.57
2023-01-02T03:53:22.204Z,6.68
2023-01-02T03:55:52.162Z,6.50
2023-01-02T03:58:26.285Z,5.80
2023-01-02T04:00:56.269Z,5.57
2023-01-02T04:03:28.997Z,5.82
2023-01-02T04:06:00.892Z,5.20
2023-01-02T04:08:41.918Z,6.50
2023-01-02T04:11:09.733Z,5.80
2023-01-02T04:13:40.162Z,5.90
2023-01-02T04:16:09.812Z,6.85
2023-01-02T04:18:46.346Z,5.03
2023-01-02T04:21:16.665Z,6.70
2023-01-02T04:23:48.320Z,5.70
2023-01-02T04:26:22.141Z,6.55
2023-01-02T04:28:49.590Z,5.27
2023-01-02T04:31:19.858Z,6.10
2023-01-02T04:33:50.603Z,5.75
2023-01-02T04:36:17.763Z,5.70
2023-01-02T04:38:45.649Z,5.35
2023-01-02T04:41:15.334Z,5.95
2023-01-02T04:43:42.449Z,5.85
2023-01-02T04:46:09.555Z,7.10
2023-01-02T04:48:36.708Z,5.95
2023-01-02T04:51:03.804Z,6.65
2023-01-02T04:53:30.890Z,14.55
2023-01-02T04:55:57.717Z,9.82
2023-01-02T04:58:26.721Z,10.37
2023-01-02T05:00:53.804Z,7.47
2023-01-02T05:03:20.930Z,7.07
2023-01-02T05:05:47.997Z,7.25
2023-01-02T05:08:16.630Z,5.97
2023-01-02T05:10:43.954Z,6.20
2023-01-02T05:13:11.007Z,5.77
2023-01-02T05:15:38.077Z,6.32
2023-01-02T05:18:05.247Z,6.13
2023-01-02T05:20:32.234Z,5.72
2023-01-02T05:23:19.189Z,5.70
2023-01-02T05:25:46.285Z,6.10
2023-01-02T05:28:13.330Z,6.32
2023-01-02T05:30:39.972Z,6.37
2023-01-02T05:33:07.049Z,7.50
2023-01-02T05:35:34.182Z,6.50
2023-01-02T05:38:01.696Z,6.28
2023-01-02T05:40:28.430Z,6.15
2023-01-02T05:42:55.511Z,7.75
2023-01-02T05:45:22.905Z,6.70
2023-01-02T05:47:49.994Z,7.88
2023-01-02T05:50:17.228Z,6.28
2023-01-02T05:52:46.063Z,6.78
2023-01-02T05:55:13.558Z,6.57
2023-01-02T05:57:40.723Z,6.20
2023-01-02T06:00:08.124Z,6.17
2023-01-02T06:02:35.304Z,5.80
2023-01-02T06:05:02.513Z,6.53
2023-01-02T06:07:29.557Z,6.07
2023-01-02T06:09:56.631Z,5.87
2023-01-02T06:12:23.694Z,6.57
2023-01-02T06:14:50.807Z,6.85
2023-01-02T06:17:17.932Z,6.28
2023-01-02T06:19:48.812Z,6.95
2023-01-02T06:22:20.679Z,5.83
2023-01-02T06:24:47.730Z,6.47
2023-01-02T06:27:14.828Z,6.60
2023-01-02T06:29:41.904Z,7.10
2023-01-02T06:32:08.953Z,8.93
2023-01-02T06:34:36.079Z,7.78
2023-01-02T06:37:09.271Z,6.30
2023-01-02T06:39:37.003Z,6.90
2023-01-02T06:42:04.145Z,6.00
2023-01-02T06:44:31.318Z,5.70
2023-01-02T06:46:58.380Z,5.10
2023-01-02T06:49:25.471Z,5.18
2023-01-02T06:51:53.515Z,5.43
2023-01-02T06:54:20.247Z,5.68
2023-01-02T06:56:47.300Z,5.40
2023-01-02T06:59:14.447Z,5.80
2023-01-02T07:01:41.912Z,5.60
2023-01-02T07:04:14.952Z,5.20
2023-01-02T07:06:42.007Z,6.15
2023-01-02T07:09:08.984Z,6.50
2023-01-02T07:11:36.079Z,5.85
2023-01-02T07:14:03.267Z,5.60
2023-01-02T07:16:30.412Z,4.60
2023-01-02T07:18:57.520Z,5.30
2023-01-02T07:21:24.791Z,5.57
2023-01-02T07:23:51.945Z,5.82
2023-01-02T07:26:19.409Z,4.57
2023-01-02T07:28:47.356Z,6.45
2023-01-02T07:31:16.779Z,4.80
2023-01-02T07:33:44.204Z,5.70
2023-01-02T07:36:12.446Z,6.03
2023-01-02T07:38:39.411Z,6.13
2023-01-02T07:41:14.132Z,6.93
2023-01-02T07:43:41.126Z,5.80
2023-01-02T07:46:08.190Z,5.95
2023-01-02T07:48:35.306Z,5.75
2023-01-02T07:51:02.924Z,6.55
2023-01-02T07:53:30.100Z,5.85
2023-01-02T07:55:57.894Z,5.88
2023-01-02T07:58:25.358Z,5.72
2023-01-02T08:00:52.536Z,5.75
2023-01-02T08:03:19.583Z,6.72
2023-01-02T08:05:46.847Z,5.47
2023-01-02T08:08:13.947Z,5.47
2023-01-02T08:10:41.059Z,5.65
2023-01-02T08:13:08.586Z,5.20
2023-01-02T08:15:35.806Z,6.40
2023-01-02T08:18:02.896Z,5.55
2023-01-02T08:20:29.981Z,6.72
2023-01-02T08:22:57.447Z,5.73
2023-01-02T08:25:24.510Z,5.90
2023-01-02T08:27:51.661Z,7.13
2023-01-02T08:30:18.806Z,6.57
2023-01-02T08:32:45.910Z,6.60
2023-01-02T08:35:13.026Z,6.43
2023-01-02T08:37:41.783Z,6.03
2023-01-02T08:40:11.658Z,5.63
2023-01-02T08:42:38.739Z,5.68
2023-01-02T08:45:06.635Z,5.78
2023-01-02T08:47:33.705Z,5.70
2023-01-02T08:50:00.777Z,5.80
2023-01-02T08:52:27.801Z,5.60
2023-01-02T08:54:54.973Z,5.43
2023-01-02T08:57:22.011Z,5.38
2023-01-02T08:59:49.040Z,6.45
2023-01-02T09:02:16.275Z,5.50
2023-01-02T09:04:43.443Z,7.80
2023-01-02T09:07:10.493Z,5.78
2023-01-02T09:09:37.662Z,6.00
2023-01-02T09:12:04.931Z,6.43
2023-01-02T09:14:32.204Z,5.53
2023-01-02T09:16:59.345Z,5.88
2023-01-02T09:19:27.697Z,6.95
2023-01-02T09:21:54.804Z,6.15
2023-01-02T09:24:21.891Z,7.00
2023-01-02T09:26:49.043Z,6.80
2023-01-02T09:29:16.319Z,7.63
2023-01-02T09:31:43.523Z,7.93
2023-01-02T09:34:10.644Z,5.30
2023-01-02T09:36:37.851Z,5.95
2023-01-02T09:39:05.511Z,5.95
2023-01-02T09:41:41.696Z,5.57
2023-01-02T09:44:14.476Z,7.00
2023-01-02T09:46:45.672Z,8.13
2023-01-02T09:49:14.009Z,7.87
2023-01-02T09:51:41.157Z,10.17
2023-01-02T09:54:14.713Z,7.82
2023-01-02T09:56:44.764Z,7.47
2023-01-02T09:59:15.407Z,7.65
2023-01-02T10:02:21.888Z,7.80
2023-01-02T10:04:54.562Z,6.35
2023-01-02T10:07:25.419Z,7.18
2023-01-02T10:10:01.616Z,6.63
2023-01-02T10:12:32.888Z,6.63
2023-01-02T10:15:02.159Z,6.93
2023-01-02T10:17:30.863Z,6.25
2023-01-02T10:19:58.943Z,6.60
2023-01-02T10:22:31.755Z,6.40
2023-01-02T10:25:03.721Z,6.53
2023-01-02T10:27:33.674Z,8.15
2023-01-02T10:30:04.911Z,6.73
2023-01-02T10:32:33.104Z,7.63
2023-01-02T10:35:07.534Z,7.45
2023-01-02T10:37:35.332Z,6.97
2023-01-02T10:40:02.655Z,6.80
2023-01-02T10:42:31.420Z,6.68
2023-01-02T10:44:58.510Z,5.63
2023-01-02T10:47:33.858Z,7.07
2023-01-02T10:50:01.367Z,6.28
2023-01-02T10:52:30.244Z,5.68
2023-01-02T10:55:00.480Z,9.23
2023-01-02T10:57:41.638Z,7.05
2023-01-02T11:00:28.005Z,6.13
2023-01-02T11:02:58.347Z,6.68
2023-01-02T11:05:26.803Z,5.68
2023-01-02T11:07:54.650Z,5.82
2023-01-02T11:10:30.584Z,7.82
2023-01-02T11:13:02.389Z,5.55
2023-01-02T11:15:30.971Z,6.03
2023-01-02T11:17:59.176Z,6.15
2023-01-02T11:20:29.915Z,5.07
2023-01-02T11:22:58.616Z,4.90
2023-01-02T11:25:27.351Z,6.05
2023-01-02T11:27:58.391Z,4.93
2023-01-02T11:30:30.527Z,5.15
2023-01-02T11:33:19.266Z,5.90
2023-01-02T11:35:47.465Z,4.80
2023-01-02T11:38:29.413Z,4.70
2023-01-02T11:40:59.330Z,8.68
2023-01-02T11:43:51.666Z,6.18
2023-01-02T11:46:35.470Z,6.38
2023-01-02T11:49:21.001Z,5.60
2023-01-02T11:51:54.383Z,7.15
2023-01-02T11:54:23.271Z,12.20
2023-01-02T11:56:50.577Z,5.07
2023-01-02T11:59:27.119Z,5.70
2023-01-02T12:01:58.274Z,5.63
2023-01-02T12:04:25.759Z,7.07
2023-01-02T12:07:12.715Z,6.07
2023-01-02T12:09:52.752Z,7.78
2023-01-02T12:12:20.789Z,3.53
2023-01-02T12:14:54.324Z,4.20
2023-01-02T12:17:29.279Z,5.40
2023-01-02T12:20:05.886Z,3.97
2023-01-02T12:22:47.427Z,6.03
2023-01-02T12:25:34.427Z,4.45
2023-01-02T12:28:21.422Z,4.47
2023-01-02T12:30:53.139Z,5.32
2023-01-02T12:33:35.894Z,4.85
2023-01-02T12:36:02.978Z,5.82
2023-01-02T12:38:37.440Z,4.33
2023-01-02T12:41:24.441Z,3.63
2023-01-02T12:44:17.145Z,4.05
2023-01-02T12:47:04.184Z,4.38
2023-01-02T12:49:45.446Z,3.75
2023-01-02T12:52:20.074Z,2.83
2023-01-02T12:54:50.407Z,3.58
2023-01-02T12:57:23.018Z,4.77
2023-01-02T13:00:04.422Z,3.43
2023-01-02T13:02:51.544Z,3.33
2023-01-02T13:05:20.960Z,4.50
2023-01-02T13:07:50.002Z,4.82
2023-01-02T13:10:19.451Z,5.50
2023-01-02T13:12:47.238Z,2.78
2023-01-02T13:15:18.894Z,4.47
2023-01-02T13:17:48.106Z,4.27
2023-01-02T13:20:21.115Z,3.50
2023-01-02T13:23:27.853Z,5.95
2023-01-02T13:25:57.458Z,4.00
2023-01-02T13:28:24.955Z,4.18
2023-01-02T13:31:05.278Z,4.47
2023-01-02T13:33:43.624Z,4.80
2023-01-02T13:36:37.221Z,3.08
2023-01-02T13:39:06.631Z,4.05
2023-01-02T13:41:59.028Z,4.72
2023-01-02T13:44:33.596Z,4.78
2023-01-02T13:47:07.925Z,4.63
2023-01-02T13:49:35.133Z,5.13
2023-01-02T13:52:02.768Z,4.85
2023-01-02T13:54:37.254Z,6.30
2023-01-02T13:57:25.117Z,6.20
2023-01-02T13:59:58.297Z,7.43
2023-01-02T14:02:25.577Z,5.00
2023-01-02T14:04:52.795Z,5.83
2023-01-02T14:07:28.906Z,4.50
2023-01-02T14:10:11.565Z,8.07
2023-01-02T14:13:00.319Z,6.38
2023-01-02T14:15:27.995Z,5.68
2023-01-02T14:18:02.164Z,7.57
2023-01-02T14:20:30.321Z,7.32
2023-01-02T14:23:00.818Z,8.40
2023-01-02T14:25:28.026Z,8.90
2023-01-02T14:27:55.250Z,10.38
2023-01-02T14:30:24.886Z,9.98
2023-01-02T14:32:52.687Z,8.30
2023-01-02T14:35:19.746Z,9.60
2023-01-02T14:37:48.613Z,6.95
2023-01-02T14:40:23.239Z,11.10
2023-01-02T14:43:14.490Z,5.90
2023-01-02T14:45:44.746Z,7.65
2023-01-02T14:48:15.249Z,7.70
2023-01-02T14:50:42.526Z,8.45
2023-01-02T14:53:17.081Z,6.40
2023-01-02T14:55:45.649Z,6.50
2023-01-02T14:58:17.677Z,8.02
2023-01-02T15:00:46.398Z,5.80
2023-01-02T15:03:26.637Z,7.35
2023-01-02T15:05:55.834Z,10.05
2023-01-02T15:08:31.427Z,8.27
2023-01-02T15:11:19.638Z,8.85
2023-01-02T15:14:04.402Z,8.50
2023-01-02T15:16:35.108Z,9.30
2023-01-02T15:19:03.051Z,6.65
2023-01-02T15:21:31.464Z,4.97
2023-01-02T15:24:00.227Z,7.32
2023-01-02T15:26:33.282Z,7.07
2023-01-02T15:29:02.971Z,7.95
2023-01-02T15:31:30.496Z,9.57
2023-01-02T15:34:00.151Z,9.73
2023-01-02T15:36:32.871Z,11.00
2023-01-02T15:39:04.536Z,9.88
2023-01-02T15:41:31.628Z,6.03
2023-01-02T15:44:19.241Z,7.68
2023-01-02T15:46:46.451Z,7.57
2023-01-02T15:49:14.802Z,7.53
2023-01-02T15:51:42.112Z,9.00
2023-01-02T15:54:14.250Z,7.32
2023-01-02T15:56:41.929Z,6.53
2023-01-02T15:59:25.936Z,6.93
2023-01-02T16:01:53.130Z,8.70
2023-01-02T16:04:29.708Z,8.87
2023-01-02T16:06:57.910Z,9.27
2023-01-02T16:09:27.927Z,11.90
2023-01-02T16:11:57.431Z,8.68
2023-01-02T16:14:31.901Z,7.38
2023-01-02T16:16:58.996Z,11.40
2023-01-02T16:19:26.075Z,9.82
2023-01-02T16:21:54.247Z,11.23
2023-01-02T16:24:22.942Z,8.88
2023-01-02T16:26:50.324Z,10.05
2023-01-02T16:29:19.204Z,10.98
2023-01-02T16:31:55.756Z,7.65
2023-01-02T16:34:26.840Z,7.53
2023-01-02T16:37:16.400Z,7.60
2023-01-02T16:39:48.425Z,8.93
2023-01-02T16:42:35.567Z,10.13
2023-01-02T16:45:03.111Z,9.40
2023-01-02T16:47:39.494Z,13.23
2023-01-02T16:50:07.690Z,9.43
2023-01-02T16:52:36.046Z,9.37
2023-01-02T16:55:03.121Z,11.83
2023-01-02T16:57:30.313Z,16.48
2023-01-02T16:59:57.384Z,12.52
2023-01-02T17:02:24.513Z,12.93
2023-01-02T17:04:51.610Z,11.57
2023-01-02T17:07:22.360Z,11.23
2023-01-02T17:09:49.913Z,7.73
2023-01-02T17:12:17.010Z,10.20
2023-01-02T17:14:44.098Z,7.55
2023-01-02T17:17:11.137Z,7.28
2023-01-02T17:19:38.467Z,7.25
2023-01-02T17:22:05.591Z,8.35
2023-01-02T17:24:32.682Z,8.85
2023-01-02T17:26:59.846Z,9.97
2023-01-02T17:29:29.538Z,10.00
2023-01-02T17:31:56.778Z,8.35
2023-01-02T17:34:24.018Z,8.63
2023-01-02T17:36:51.177Z,11.18
2023-01-02T17:39:18.238Z,10.52
2023-01-02T17:41:45.400Z,12.95
2023-01-02T17:44:12.474Z,9.18
2023-01-02T17:47:09.248Z,11.15
2023-01-02T17:49:27.057Z,7.93
2023-01-02T17:51:54.211Z,10.18
2023-01-02T17:54:21.484Z,7.82
2023-01-02T17:56:48.577Z,7.75
2023-01-02T17:59:19.697Z,8.23
2023-01-02T18:01:47.462Z,7.68
2023-01-02T18:04:14.653Z,10.20
2023-01-02T18:06:41.976Z,7.78
2023-01-02T18:09:09.207Z,11.48
2023-01-02T18:11:36.312Z,10.27
2023-01-02T18:14:04.189Z,7.83
2023-01-02T18:16:38.186Z,7.13
2023-01-02T18:19:07.497Z,9.02
2023-01-02T18:21:34.904Z,10.90
2023-01-02T18:24:03.918Z,9.60
2023-01-02T18:26:31.695Z,8.00
2023-01-02T18:29:04.245Z,7.55
2023-01-02T18:31:38.713Z,8.23
2023-01-02T18:34:29.454Z,5.97
2023-01-02T18:37:00.633Z,5.22
2023-01-02T18:39:34.288Z,6.45
2023-01-02T18:42:10.920Z,6.40
2023-01-02T18:44:39.849Z,7.35
2023-01-02T18:47:13.410Z,9.83
2023-01-02T18:49:42.149Z,5.40
2023-01-02T18:52:12.468Z,5.80
2023-01-02T18:54:41.885Z,6.20
2023-01-02T18:57:15.327Z,5.75
2023-01-02T18:59:44.075Z,5.03
2023-01-02T19:02:28.142Z,6.65
2023-01-02T19:04:56.324Z,5.23
2023-01-02T19:07:32.217Z,7.22
2023-01-02T19:10:09.820Z,5.65
2023-01-02T19:13:06.734Z,7.10
2023-01-02T19:15:42.358Z,5.13
2023-01-02T19:18:26.136Z,6.47
2023-01-02T19:20:56.569Z,5.80
2023-01-02T19:23:32.676Z,7.50
2023-01-02T19:26:01.866Z,5.15
2023-01-02T19:28:31.277Z,5.07
2023-01-02T19:30:58.457Z,6.70
2023-01-02T19:33:32.942Z,7.78
2023-01-02T19:36:01.977Z,9.85
2023-01-02T19:38:31.337Z,7.07
2023-01-02T19:40:58.788Z,4.63
2023-01-02T19:43:26.202Z,5.63
2023-01-02T19:45:53.459Z,6.47
2023-01-02T19:48:20.582Z,5.53
2023-01-02T19:50:47.774Z,3.83
2023-01-02T19:53:14.878Z,4.05
2023-01-02T19:55:41.908Z,3.95
2023-01-02T19:58:09.065Z,3.53
2023-01-02T20:00:36.142Z,4.97
2023-01-02T20:03:03.415Z,3.25
2023-01-02T20:05:30.790Z,3.42
2023-01-02T20:07:59.298Z,4.22
2023-01-02T20:10:26.701Z,3.23
2023-01-02T20:12:53.922Z,3.42
2023-01-02T20:15:23.385Z,2.43
2023-01-02T20:17:50.797Z,3.08
2023-01-02T20:20:19.060Z,1.77
2023-01-02T20:22:46.898Z,2.33
2023-01-02T20:25:14.917Z,2.22
2023-01-02T20:27:42.130Z,2.25
2023-01-02T20:30:09.731Z,2.50
2023-01-02T20:32:37.076Z,3.42
2023-01-02T20:35:04.596Z,2.25
2023-01-02T20:37:31.772Z,3.03
2023-01-02T20:39:59.027Z,3.75
2023-01-02T20:42:26.190Z,3.10
2023-01-02T20:44:53.369Z,2.58
2023-01-02T20:47:20.591Z,3.72
2023-01-02T20:49:47.751Z,3.95
2023-01-02T20:52:15.290Z,3.20
2023-01-02T20:54:42.492Z,4.35
2023-01-02T20:57:09.627Z,2.65
2023-01-02T20:59:36.834Z,3.13
2023-01-02T21:02:04.415Z,4.63
2023-01-02T21:04:36.536Z,1.60
2023-01-02T21:07:04.748Z,3.53
2023-01-02T21:09:31.892Z,2.00
2023-01-02T21:11:58.978Z,2.70
2023-01-02T21:14:26.092Z,3.55
2023-01-02T21:16:54.565Z,2.63
2023-01-02T21:19:21.789Z,4.13
2023-01-02T21:21:48.896Z,4.30
2023-01-02T21:24:16.050Z,3.00
2023-01-02T21:26:43.129Z,3.78
2023-01-02T21:29:10.286Z,3.65
2023-01-02T21:31:38.497Z,1.70
2023-01-02T21:34:05.792Z,3.00
2023-01-02T21:36:34.902Z,4.00
2023-01-02T21:39:02.302Z,1.90
2023-01-02T21:41:49.349Z,3.10
2023-01-02T21:44:16.446Z,2.77
2023-01-02T21:46:43.543Z,3.63
2023-01-02T21:49:10.726Z,2.42
2023-01-02T21:51:37.823Z,2.08
2023-01-02T21:54:05.056Z,2.30
2023-01-02T21:56:33.073Z,2.80
2023-01-02T21:59:00.179Z,2.35
2023-01-02T22:01:27.430Z,1.85
2023-01-02T22:03:57.139Z,1.70
2023-01-02T22:06:25.688Z,2.38
2023-01-02T22:08:52.773Z,1.67
2023-01-02T22:11:39.811Z,1.50
2023-01-02T22:14:07.033Z,1.25
2023-01-02T22:16:34.218Z,1.45
2023-01-02T22:19:01.428Z,1.20
2023-01-02T22:21:28.561Z,1.00
2023-01-02T22:23:55.678Z,1.77
2023-01-02T22:26:22.839Z,0.80
2023-01-02T22:28:50.027Z,0.87
2023-01-02T22:31:17.138Z,1.20
2023-01-02T22:33:44.497Z,1.10
2023-01-02T22:36:11.630Z,0.90
2023-01-02T22:38:55.055Z,1.20
2023-01-02T22:41:25.886Z,1.55
2023-01-02T22:43:53.805Z,1.48
2023-01-02T22:46:26.232Z,1.30
2023-01-02T22:48:53.530Z,1.70
2023-01-02T22:51:42.779Z,1.67
2023-01-02T22:54:14.296Z,1.65
2023-01-02T22:56:41.819Z,2.45
2023-01-02T22:59:09.036Z,1.92
2023-01-02T23:01:38.174Z,1.70
2023-01-02T23:04:07.087Z,1.70
2023-01-02T23:06:38.055Z,1.83
2023-01-02T23:09:19.081Z,1.63
2023-01-02T23:11:46.421Z,1.67
2023-01-02T23:14:14.113Z,2.78
2023-01-02T23:17:01.418Z,3.25
2023-01-02T23:19:28.599Z,1.70
2023-01-02T23:21:56.999Z,1.80
2023-01-02T23:24:26.846Z,1.55
2023-01-02T23:26:55.120Z,1.40
2023-01-02T23:29:23.063Z,1.40
2023-01-02T23:31:50.974Z,1.42
2023-01-02T23:34:19.443Z,1.58
2023-01-02T23:36:46.725Z,1.30
2023-01-02T23:39:15.687Z,1.57
2023-01-02T23:41:43.497Z,1.48
2023-01-02T23:44:11.136Z,1.40
2023-01-02T23:46:38.688Z,1.50
2023-01-02T23:49:07.288Z,2.10
2023-01-02T23:51:34.441Z,1.60
2023-01-02T23:54:01.908Z,1.60
2023-01-02T23:56:31.440Z,1.38
2023-01-02T23:59:00.513Z,1.70
